Shawnee Mission, KS (66225)

7:48 PM CST on November 23, 2014 (GMT -0600)
Lexington Park | Change Station
CLOSE
Current Station
Personal Weather Station
Location: Overland Park, KS
Elevation: 988 ft
Nearby Weather Stations

Elev 988 ft 38.91 °N, 94.68 °W | Updated 24 minutes ago

Rain
Rain
44.1 °F
Feels Like 40 °F
N
7.6
Wind Variable Wind from NE
Gusts 9.8 mph

Today
High -- | Low -- °F
--% Chance of Precip.
Yesterday
High -- | Low -- °F
Precip. -- in
7:10 AM 4:59 PM
Waxing Crescent, 3% visible
Pressure 29.42 in
Visibility 9.0 miles
Clouds Mostly Cloudy 1400 ft
Overcast 2000 ft
Windchill 40 °F
Dew Point 42 °F
Humidity 92%
Rainfall 0.00 in
Snow Depth Not available.
UV 0 out of 12
Pollen .10 out of 12
Air Quality Not available.
Flu Activity Not available.
METAR KOJC 240053Z 34018G27KT 9SM -RA BKN014 OVC020 06/05 A2942 RMK AO2 PK WND 34035/0011 SLP961 P0003 T00610050

More Conditions Fewer Conditions

Pressure 29.42 in
Visibility 9.0 miles
Clouds Mostly Cloudy 1400 ft
Overcast 2000 ft
Windchill 40 °F
Dew Point 42 °F
Humidity 92%
Rainfall 0.00 in
Snow Depth Not available.
UV 0 out of 12
Pollen .10 out of 12
Air Quality Not available.
Flu Activity Not available.
METAR KOJC 240053Z 34018G27KT 9SM -RA BKN014 OVC020 06/05 A2942 RMK AO2 PK WND 34035/0011 SLP961 P0003 T00610050

More Conditions Fewer Conditions

10-Day Weather Forecast

Almanac

Astronomy

Nov. 23, 2014 Rise Set
Actual Time
Civil Twilight
Nautical Twilight
Astronomical Twilight
Moon
Length of Visible Light
Length of Day
Tomorrow will be .
, % of the Moon is Illuminated

Today's Extremes

State Highs State Lows

Community

WunderPhotos

Upload Photos

1,773,237 photos uploaded!

WunderBlogs® & News

Nearby

Air Quality

  Air Quality AQ Index Pollutant
Not available.

Snow Depth

Station Depth Elevation

Earthquake Activity

City Distance Mag. Time & Date
Minimum magnitude displayed is 2.5.

Coastal Water Temperatures

Place Temperature

Nearby Weather Stations